sensor_id;sensor_type;location;lat;lon;timestamp;pressure;altitude;pressure_sealevel;temperature;humidity
10145;BME280;5113;41.822;23.564;2023-07-29T00:00:39;-11306.50;;;13.45;100.00
10145;BME280;5113;41.822;23.564;2023-07-29T00:03:46;-11285.25;;;12.68;100.00
10145;BME280;5113;41.822;23.564;2023-07-29T00:06:53;-11304.25;;;13.37;100.00
10145;BME280;5113;41.822;23.564;2023-07-29T00:09:59;-11318.63;;;13.88;100.00
10145;BME280;5113;41.822;23.564;2023-07-29T00:13:07;-11296.78;;;13.10;100.00
10145;BME280;5113;41.822;23.564;2023-07-29T00:16:14;-11316.09;;;13.79;100.00
10145;BME280;5113;41.822;23.564;2023-07-29T00:19:22;-11324.81;;;14.11;100.00
10145;BME280;5113;41.822;23.564;2023-07-29T00:22:29;-11325.66;;;14.14;100.00
10145;BME280;5113;41.822;23.564;2023-07-29T00:25:36;-11327.22;;;14.19;100.00
10145;BME280;5113;41.822;23.564;2023-07-29T00:28:42;-11323.69;;;14.07;99.31
10145;BME280;5113;41.822;23.564;2023-07-29T00:31:49;-11298.78;;;13.17;100.00
10145;BME280;5113;41.822;23.564;2023-07-29T00:34:55;-11293.00;;;12.96;100.00
10145;BME280;5113;41.822;23.564;2023-07-29T00:38:03;-11301.16;;;13.26;100.00
10145;BME280;5113;41.822;23.564;2023-07-29T00:41:11;-11298.06;;;13.14;100.00
10145;BME280;5113;41.822;23.564;2023-07-29T00:44:18;-11301.16;;;13.26;100.00
10145;BME280;5113;41.822;23.564;2023-07-29T00:47:25;-11286.09;;;12.71;100.00
10145;BME280;5113;41.822;23.564;2023-07-29T00:50:32;-11263.03;;;11.88;100.00
10145;BME280;5113;41.822;23.564;2023-07-29T00:53:40;-11264.84;;;11.95;100.00
10145;BME280;5113;41.822;23.564;2023-07-29T00:56:47;-11278.63;;;12.44;100.00
10145;BME280;5113;41.822;23.564;2023-07-29T00:59:53;-11298.91;;;13.17;100.00
10145;BME280;5113;41.822;23.564;2023-07-29T01:03:00;-11303.69;;;13.35;100.00
10145;BME280;5113;41.822;23.564;2023-07-29T01:06:13;-11299.47;;;13.19;100.00
10145;BME280;5113;41.822;23.564;2023-07-29T01:09:28;-11299.34;;;13.19;100.00
10145;BME280;5113;41.822;23.564;2023-07-29T01:12:41;-11300.88;;;13.25;100.00
10145;BME280;5113;41.822;23.564;2023-07-29T01:15:55;-11302.00;;;13.29;100.00
10145;BME280;5113;41.822;23.564;2023-07-29T01:19:05;-11307.34;;;13.48;100.00
10145;BME280;5113;41.822;23.564;2023-07-29T01:22:13;-11308.63;;;13.52;100.00
10145;BME280;5113;41.822;23.564;2023-07-29T01:25:21;-11308.19;;;13.51;100.00
10145;BME280;5113;41.822;23.564;2023-07-29T01:28:28;-11301.44;;;13.27;100.00
10145;BME280;5113;41.822;23.564;2023-07-29T01:31:38;-11311.44;;;13.63;100.00
10145;BME280;5113;41.822;23.564;2023-07-29T01:34:51;-11310.03;;;13.58;100.00
10145;BME280;5113;41.822;23.564;2023-07-29T01:38:05;-11298.63;;;13.16;100.00
10145;BME280;5113;41.822;23.564;2023-07-29T01:41:14;-11296.09;;;13.07;100.00
10145;BME280;5113;41.822;23.564;2023-07-29T01:44:22;-11281.16;;;12.53;100.00
10145;BME280;5113;41.822;23.564;2023-07-29T01:47:28;-11282.28;;;12.57;100.00
10145;BME280;5113;41.822;23.564;2023-07-29T01:50:35;-11275.25;;;12.32;100.00
10145;BME280;5113;41.822;23.564;2023-07-29T01:53:42;-11270.75;;;12.16;100.00
10145;BME280;5113;41.822;23.564;2023-07-29T01:56:50;-11260.47;;;11.79;100.00
10145;BME280;5113;41.822;23.564;2023-07-29T01:59:57;-11250.91;;;11.44;100.00
10145;BME280;5113;41.822;23.564;2023-07-29T02:03:03;-11243.47;;;11.17;100.00
10145;BME280;5113;41.822;23.564;2023-07-29T02:06:10;-11254.44;;;11.57;100.00
10145;BME280;5113;41.822;23.564;2023-07-29T02:09:16;-11244.88;;;11.22;100.00
10145;BME280;5113;41.822;23.564;2023-07-29T02:12:24;-11271.88;;;12.20;100.00
10145;BME280;5113;41.822;23.564;2023-07-29T02:15:30;-11261.59;;;11.83;100.00
10145;BME280;5113;41.822;23.564;2023-07-29T02:18:37;-11265.97;;;11.99;100.00
10145;BME280;5113;41.822;23.564;2023-07-29T02:21:43;-11271.31;;;12.18;100.00
10145;BME280;5113;41.822;23.564;2023-07-29T02:24:49;-11264.56;;;11.94;100.00
10145;BME280;5113;41.822;23.564;2023-07-29T02:27:57;-11268.78;;;12.09;100.00
10145;BME280;5113;41.822;23.564;2023-07-29T02:31:15;-11267.09;;;12.03;100.00
10145;BME280;5113;41.822;23.564;2023-07-29T02:34:22;-11272.59;;;12.22;100.00
10145;BME280;5113;41.822;23.564;2023-07-29T02:37:28;-11267.94;;;12.06;100.00
10145;BME280;5113;41.822;23.564;2023-07-29T02:40:35;-11272.72;;;12.23;100.00
10145;BME280;5113;41.822;23.564;2023-07-29T02:43:43;-11258.09;;;11.70;100.00
10145;BME280;5113;41.822;23.564;2023-07-29T02:46:49;-11262.03;;;11.84;100.00
10145;BME280;5113;41.822;23.564;2023-07-29T02:49:56;-11267.81;;;12.05;100.00
10145;BME280;5113;41.822;23.564;2023-07-29T02:53:05;-11246.28;;;11.28;100.00
10145;BME280;5113;41.822;23.564;2023-07-29T02:56:12;-11235.72;;;10.89;100.00
10145;BME280;5113;41.822;23.564;2023-07-29T02:59:20;-11238.81;;;11.01;100.00
10145;BME280;5113;41.822;23.564;2023-07-29T03:02:26;-11240.34;;;11.06;100.00
10145;BME280;5113;41.822;23.564;2023-07-29T03:05:32;-11243.03;;;11.16;100.00
10145;BME280;5113;41.822;23.564;2023-07-29T03:08:39;-11238.38;;;10.99;100.00
10145;BME280;5113;41.822;23.564;2023-07-29T03:11:46;-11266.13;;;11.99;100.00
10145;BME280;5113;41.822;23.564;2023-07-29T03:14:54;-11262.72;;;11.87;100.00
10145;BME280;5113;41.822;23.564;2023-07-29T03:18:00;-11267.09;;;12.03;100.00
10145;BME280;5113;41.822;23.564;2023-07-29T03:21:08;-11267.66;;;12.05;100.00
10145;BME280;5113;41.822;23.564;2023-07-29T03:24:15;-11272.16;;;12.21;100.00
10145;BME280;5113;41.822;23.564;2023-07-29T03:27:21;-11264.28;;;11.93;100.00
10145;BME280;5113;41.822;23.564;2023-07-29T03:30:29;-11273.56;;;12.26;100.00
10145;BME280;5113;41.822;23.564;2023-07-29T03:33:36;-11271.47;;;12.18;100.00
10145;BME280;5113;41.822;23.564;2023-07-29T03:36:42;-11262.72;;;11.87;100.00
10145;BME280;5113;41.822;23.564;2023-07-29T03:39:51;-11246.28;;;11.28;100.00
10145;BME280;5113;41.822;23.564;2023-07-29T03:42:57;-11240.34;;;11.06;100.00
10145;BME280;5113;41.822;23.564;2023-07-29T03:46:05;-11230.09;;;10.69;100.00
10145;BME280;5113;41.822;23.564;2023-07-29T03:49:15;-11250.78;;;11.44;100.00
10145;BME280;5113;41.822;23.564;2023-07-29T03:52:22;-11236.72;;;10.93;100.00
10145;BME280;5113;41.822;23.564;2023-07-29T03:55:28;-11247.69;;;11.33;100.00
10145;BME280;5113;41.822;23.564;2023-07-29T03:58:35;-11250.78;;;11.44;100.00
10145;BME280;5113;41.822;23.564;2023-07-29T04:01:43;-11265.56;;;11.97;100.00
10145;BME280;5113;41.822;23.564;2023-07-29T04:04:50;-11274.56;;;12.30;100.00
10145;BME280;5113;41.822;23.564;2023-07-29T04:07:56;-11260.19;;;11.78;100.00
10145;BME280;5113;41.822;23.564;2023-07-29T04:11:03;-11272.16;;;12.21;100.00
10145;BME280;5113;41.822;23.564;2023-07-29T04:14:09;-11277.66;;;12.41;100.00
10145;BME280;5113;41.822;23.564;2023-07-29T04:17:17;-11289.19;;;12.82;100.00
10145;BME280;5113;41.822;23.564;2023-07-29T04:20:24;-11284.28;;;12.65;100.00
10145;BME280;5113;41.822;23.564;2023-07-29T04:23:30;-11290.47;;;12.87;100.00
10145;BME280;5113;41.822;23.564;2023-07-29T04:26:37;-11282.28;;;12.57;100.00
10145;BME280;5113;41.822;23.564;2023-07-29T04:29:44;-11285.69;;;12.70;100.00
10145;BME280;5113;41.822;23.564;2023-07-29T04:32:52;-11304.25;;;13.37;100.00
10145;BME280;5113;41.822;23.564;2023-07-29T04:35:58;-11306.09;;;13.43;100.00
10145;BME280;5113;41.822;23.564;2023-07-29T04:39:05;-11304.69;;;13.38;100.00
10145;BME280;5113;41.822;23.564;2023-07-29T04:42:11;-11320.03;;;13.94;100.00
10145;BME280;5113;41.822;23.564;2023-07-29T04:45:18;-11335.66;;;14.50;100.00
10145;BME280;5113;41.822;23.564;2023-07-29T04:48:26;-11330.16;;;14.30;100.00
10145;BME280;5113;41.822;23.564;2023-07-29T04:51:32;-11336.94;;;14.54;99.64
10145;BME280;5113;41.822;23.564;2023-07-29T04:54:39;-11348.34;;;14.96;96.73
10145;BME280;5113;41.822;23.564;2023-07-29T04:57:45;-11347.63;;;14.93;97.73
10145;BME280;5113;41.822;23.564;2023-07-29T05:00:52;-11364.41;;;15.53;94.67
10145;BME280;5113;41.822;23.564;2023-07-29T05:03:59;-11352.56;;;15.11;95.53
10145;BME280;5113;41.822;23.564;2023-07-29T05:07:06;-11366.50;;;15.61;91.33
10145;BME280;5113;41.822;23.564;2023-07-29T05:10:12;-11371.84;;;15.80;89.09
10145;BME280;5113;41.822;23.564;2023-07-29T05:13:19;-11380.03;;;16.10;84.48
10145;BME280;5113;41.822;23.564;2023-07-29T05:16:25;-11387.34;;;16.36;83.21
10145;BME280;5113;41.822;23.564;2023-07-29T05:19:33;-11398.34;;;16.76;82.95
10145;BME280;5113;41.822;23.564;2023-07-29T05:22:40;-11410.19;;;17.19;80.75
10145;BME280;5113;41.822;23.564;2023-07-29T05:25:47;-11398.06;;;16.75;78.58
10145;BME280;5113;41.822;23.564;2023-07-29T05:28:53;-11410.19;;;17.19;77.14
10145;BME280;5113;41.822;23.564;2023-07-29T05:32:00;-11424.28;;;17.69;75.36
10145;BME280;5113;41.822;23.564;2023-07-29T05:35:08;-11426.13;;;17.76;75.72
10145;BME280;5113;41.822;23.564;2023-07-29T05:38:15;-11422.59;;;17.63;73.84
10145;BME280;5113;41.822;23.564;2023-07-29T05:41:22;-11429.09;;;17.87;71.17
10145;BME280;5113;41.822;23.564;2023-07-29T05:44:28;-11439.09;;;18.23;70.74
10145;BME280;5113;41.822;23.564;2023-07-29T05:47:35;-11452.34;;;18.70;67.44
10145;BME280;5113;41.822;23.564;2023-07-29T05:50:43;-11451.63;;;18.68;65.99
10145;BME280;5113;41.822;23.564;2023-07-29T05:53:50;-11458.41;;;18.92;64.53
10145;BME280;5113;41.822;23.564;2023-07-29T05:56:57;-11451.34;;;18.67;65.62
10145;BME280;5113;41.822;23.564;2023-07-29T06:00:04;-11449.81;;;18.61;65.76
10145;BME280;5113;41.822;23.564;2023-07-29T06:03:10;-11465.03;;;19.16;63.46
10145;BME280;5113;41.822;23.564;2023-07-29T06:06:18;-11481.81;;;19.76;62.90
10145;BME280;5113;41.822;23.564;2023-07-29T06:09:25;-11479.41;;;19.68;61.14
10145;BME280;5113;41.822;23.564;2023-07-29T06:12:32;-11490.84;;;20.09;60.31
10145;BME280;5113;41.822;23.564;2023-07-29T06:15:38;-11489.72;;;20.05;60.84
10145;BME280;5113;41.822;23.564;2023-07-29T06:18:45;-11494.22;;;20.21;59.39
10145;BME280;5113;41.822;23.564;2023-07-29T06:21:55;-11496.47;;;20.29;58.57
10145;BME280;5113;41.822;23.564;2023-07-29T06:25:01;-11499.88;;;20.41;57.24
10145;BME280;5113;41.822;23.564;2023-07-29T06:28:09;-11515.09;;;20.96;55.66
10145;BME280;5113;41.822;23.564;2023-07-29T06:31:15;-11533.44;;;21.62;53.59
10145;BME280;5113;41.822;23.564;2023-07-29T06:34:22;-11537.97;;;21.79;52.88
10145;BME280;5113;41.822;23.564;2023-07-29T06:37:32;-11521.03;;;21.18;51.62
10145;BME280;5113;41.822;23.564;2023-07-29T06:40:38;-11554.06;;;22.36;51.90
10145;BME280;5113;41.822;23.564;2023-07-29T06:43:45;-11554.34;;;22.37;51.38
10145;BME280;5113;41.822;23.564;2023-07-29T06:46:51;-11554.19;;;22.37;50.36
10145;BME280;5113;41.822;23.564;2023-07-29T06:49:58;-11569.16;;;22.91;49.85
10145;BME280;5113;41.822;23.564;2023-07-29T06:53:06;-11558.84;;;22.54;50.53
10145;BME280;5113;41.822;23.564;2023-07-29T06:56:12;-11561.66;;;22.64;50.64
10145;BME280;5113;41.822;23.564;2023-07-29T06:59:19;-11586.50;;;23.53;52.14
10145;BME280;5113;41.822;23.564;2023-07-29T07:02:25;-11587.63;;;23.57;50.34
10145;BME280;5113;41.822;23.564;2023-07-29T07:05:32;-11588.78;;;23.61;51.82
10145;BME280;5113;41.822;23.564;2023-07-29T07:08:40;-11599.63;;;24.00;51.08
10145;BME280;5113;41.822;23.564;2023-07-29T07:11:47;-11606.69;;;24.26;50.07
10145;BME280;5113;41.822;23.564;2023-07-29T07:14:53;-11631.97;;;25.17;50.46
10145;BME280;5113;41.822;23.564;2023-07-29T07:18:00;-11602.31;;;24.10;50.20
10145;BME280;5113;41.822;23.564;2023-07-29T07:21:06;-11627.44;;;25.00;49.00
10145;BME280;5113;41.822;23.564;2023-07-29T07:24:15;-11606.41;;;24.25;46.88
10145;BME280;5113;41.822;23.564;2023-07-29T07:27:21;-11609.66;;;24.36;46.86
10145;BME280;5113;41.822;23.564;2023-07-29T07:30:28;-11619.81;;;24.73;47.32
10145;BME280;5113;41.822;23.564;2023-07-29T07:33:35;-11603.03;;;24.13;45.27
10145;BME280;5113;41.822;23.564;2023-07-29T07:36:42;-11613.91;;;24.52;45.38
10145;BME280;5113;41.822;23.564;2023-07-29T07:39:50;-11626.03;;;24.95;43.53
10145;BME280;5113;41.822;23.564;2023-07-29T07:42:57;-11633.81;;;25.23;43.41
10145;BME280;5113;41.822;23.564;2023-07-29T07:46:04;-11629.28;;;25.07;43.87
10145;BME280;5113;41.822;23.564;2023-07-29T07:49:11;-11639.16;;;25.43;44.44
10145;BME280;5113;41.822;23.564;2023-07-29T07:52:18;-11652.31;;;25.90;43.31
10145;BME280;5113;41.822;23.564;2023-07-29T07:55:26;-11651.88;;;25.88;43.05
10145;BME280;5113;41.822;23.564;2023-07-29T07:58:33;-11662.19;;;26.25;42.54
10145;BME280;5113;41.822;23.564;2023-07-29T08:01:40;-11664.72;;;26.35;42.56
10145;BME280;5113;41.822;23.564;2023-07-29T08:04:46;-11679.13;;;26.86;42.77
10145;BME280;5113;41.822;23.564;2023-07-29T08:07:52;-11679.69;;;26.88;42.20
10145;BME280;5113;41.822;23.564;2023-07-29T08:11:00;-11666.72;;;26.42;42.24
10145;BME280;5113;41.822;23.564;2023-07-29T08:14:07;-11678.28;;;26.83;42.81
10145;BME280;5113;41.822;23.564;2023-07-29T08:17:13;-11686.75;;;27.14;41.06
10145;BME280;5113;41.822;23.564;2023-07-29T08:20:19;-11689.31;;;27.23;40.62
10145;BME280;5113;41.822;23.564;2023-07-29T08:23:26;-11694.66;;;27.42;40.34
10145;BME280;5113;41.822;23.564;2023-07-29T08:26:34;-11717.56;;;28.24;39.92
10145;BME280;5113;41.822;23.564;2023-07-29T08:29:41;-11697.91;;;27.54;40.21
10145;BME280;5113;41.822;23.564;2023-07-29T08:32:47;-11714.44;;;28.13;40.30
10145;BME280;5113;41.822;23.564;2023-07-29T08:35:54;-11688.03;;;27.18;41.29
10145;BME280;5113;41.822;23.564;2023-07-29T08:39:01;-11711.19;;;28.02;41.15
10145;BME280;5113;41.822;23.564;2023-07-29T08:42:11;-11714.44;;;28.13;39.41
10145;BME280;5113;41.822;23.564;2023-07-29T08:45:18;-11729.28;;;28.67;39.80
10145;BME280;5113;41.822;23.564;2023-07-29T08:48:31;-11710.63;;;28.00;40.50
10145;BME280;5113;41.822;23.564;2023-07-29T08:51:38;-11690.16;;;27.26;41.22
10145;BME280;5113;41.822;23.564;2023-07-29T08:54:45;-11710.50;;;27.99;41.15
10145;BME280;5113;41.822;23.564;2023-07-29T08:57:53;-11736.34;;;28.92;39.50
10145;BME280;5113;41.822;23.564;2023-07-29T09:01:01;-11714.88;;;28.15;39.76
10145;BME280;5113;41.822;23.564;2023-07-29T09:04:07;-11727.00;;;28.58;39.57
10145;BME280;5113;41.822;23.564;2023-07-29T09:07:14;-11740.44;;;29.07;39.11
10145;BME280;5113;41.822;23.564;2023-07-29T09:10:21;-11747.34;;;29.32;39.09
10145;BME280;5113;41.822;23.564;2023-07-29T09:13:30;-11719.53;;;28.32;38.93
10145;BME280;5113;41.822;23.564;2023-07-29T09:16:37;-11724.34;;;28.49;39.29
10145;BME280;5113;41.822;23.564;2023-07-29T09:19:47;-11735.34;;;28.88;38.15
10145;BME280;5113;41.822;23.564;2023-07-29T09:22:55;-11758.25;;;29.71;37.84
10145;BME280;5113;41.822;23.564;2023-07-29T09:26:02;-11763.59;;;29.90;37.58
10145;BME280;5113;41.822;23.564;2023-07-29T09:29:11;-11767.00;;;30.02;36.92
10145;BME280;5113;41.822;23.564;2023-07-29T09:32:21;-11760.78;;;29.80;37.73
10145;BME280;5113;41.822;23.564;2023-07-29T09:35:30;-11799.06;;;31.17;36.88
10145;BME280;5113;41.822;23.564;2023-07-29T09:38:38;-11741.84;;;29.12;36.66
10145;BME280;5113;41.822;23.564;2023-07-29T09:41:47;-11774.91;;;30.31;35.96
10145;BME280;5113;41.822;23.564;2023-07-29T09:44:56;-11780.13;;;30.49;35.76
10145;BME280;5113;41.822;23.564;2023-07-29T09:48:03;-11784.81;;;30.66;36.61
10145;BME280;5113;41.822;23.564;2023-07-29T09:51:10;-11788.62;;;30.80;34.63
10145;BME280;5113;41.822;23.564;2023-07-29T09:54:17;-11824.66;;;32.09;35.83
10145;BME280;5113;41.822;23.564;2023-07-29T09:57:24;-11797.81;;;31.13;34.79
10145;BME280;5113;41.822;23.564;2023-07-29T10:00:32;-11813.63;;;31.70;34.34
10145;BME280;5113;41.822;23.564;2023-07-29T10:03:39;-11807.97;;;31.49;33.66
10145;BME280;5113;41.822;23.564;2023-07-29T10:06:46;-11780.00;;;30.49;34.29
10145;BME280;5113;41.822;23.564;2023-07-29T10:09:54;-11809.66;;;31.56;32.83
10145;BME280;5113;41.822;23.564;2023-07-29T10:13:02;-11799.34;;;31.18;32.73
10145;BME280;5113;41.822;23.564;2023-07-29T10:16:10;-11778.31;;;30.43;33.74
10145;BME280;5113;41.822;23.564;2023-07-29T10:19:17;-11826.63;;;32.16;32.62
10145;BME280;5113;41.822;23.564;2023-07-29T10:22:28;-11801.75;;;31.27;32.16
10145;BME280;5113;41.822;23.564;2023-07-29T10:25:38;-11788.19;;;30.78;32.71
10145;BME280;5113;41.822;23.564;2023-07-29T10:28:47;-11818.56;;;31.88;32.37
10145;BME280;5113;41.822;23.564;2023-07-29T10:31:57;-11811.09;;;31.61;33.04
10145;BME280;5113;41.822;23.564;2023-07-29T10:35:05;-11803.72;;;31.34;33.06
10145;BME280;5113;41.822;23.564;2023-07-29T10:38:12;-11792.56;;;30.94;32.71
10145;BME280;5113;41.822;23.564;2023-07-29T10:41:18;-11801.75;;;31.27;30.86
10145;BME280;5113;41.822;23.564;2023-07-29T10:44:47;-11813.91;;;31.71;32.37
10145;BME280;5113;41.822;23.564;2023-07-29T10:47:57;-11826.19;;;32.15;31.12
10145;BME280;5113;41.822;23.564;2023-07-29T10:51:24;-11829.19;;;32.26;30.23
10145;BME280;5113;41.822;23.564;2023-07-29T10:54:41;-11853.34;;;33.12;29.37
10145;BME280;5113;41.822;23.564;2023-07-29T10:57:48;-11838.50;;;32.59;30.19
10145;BME280;5113;41.822;23.564;2023-07-29T11:00:55;-11828.91;;;32.25;31.03
10145;BME280;5113;41.822;23.564;2023-07-29T11:04:24;-11852.78;;;33.10;30.36
10145;BME280;5113;41.822;23.564;2023-07-29T11:07:43;-11820.97;;;31.96;30.74
10145;BME280;5113;41.822;23.564;2023-07-29T11:11:14;-11873.56;;;33.85;29.46
10145;BME280;5113;41.822;23.564;2023-07-29T11:14:20;-11822.94;;;32.03;31.07
10145;BME280;5113;41.822;23.564;2023-07-29T11:17:27;-11829.19;;;32.26;30.53
10145;BME280;5113;41.822;23.564;2023-07-29T11:20:36;-11858.28;;;33.30;29.71
10145;BME280;5113;41.822;23.564;2023-07-29T11:23:42;-11842.03;;;32.72;30.22
10145;BME280;5113;41.822;23.564;2023-07-29T11:26:49;-11835.38;;;32.48;30.46
10145;BME280;5113;41.822;23.564;2023-07-29T11:29:56;-11840.63;;;32.67;30.56
10145;BME280;5113;41.822;23.564;2023-07-29T11:33:03;-11875.81;;;33.93;29.47
10145;BME280;5113;41.822;23.564;2023-07-29T11:36:18;-11867.19;;;33.62;28.94
10145;BME280;5113;41.822;23.564;2023-07-29T11:39:25;-11891.66;;;34.50;30.25
10145;BME280;5113;41.822;23.564;2023-07-29T11:42:33;-11847.25;;;32.91;31.31
10145;BME280;5113;41.822;23.564;2023-07-29T11:45:40;-11841.47;;;32.70;30.92
10145;BME280;5113;41.822;23.564;2023-07-29T11:48:56;-11873.84;;;33.86;29.79
10145;BME280;5113;41.822;23.564;2023-07-29T11:52:06;-11846.41;;;32.88;31.62
10145;BME280;5113;41.822;23.564;2023-07-29T11:55:14;-11831.28;;;32.33;31.55
10145;BME280;5113;41.822;23.564;2023-07-29T11:58:21;-11845.56;;;32.85;30.70
10145;BME280;5113;41.822;23.564;2023-07-29T12:01:28;-11864.78;;;33.54;31.28
10145;BME280;5113;41.822;23.564;2023-07-29T12:04:35;-11875.81;;;33.93;30.90
10145;BME280;5113;41.822;23.564;2023-07-29T12:07:44;-11849.81;;;33.00;31.89
10145;BME280;5113;41.822;23.564;2023-07-29T12:10:51;-11826.06;;;32.14;31.05
10145;BME280;5113;41.822;23.564;2023-07-29T12:13:57;-11841.31;;;32.69;30.17
10145;BME280;5113;41.822;23.564;2023-07-29T12:17:05;-11849.66;;;32.99;30.57
10145;BME280;5113;41.822;23.564;2023-07-29T12:20:12;-11874.97;;;33.90;28.92
10145;BME280;5113;41.822;23.564;2023-07-29T12:23:24;-11828.63;;;32.24;29.84
10145;BME280;5113;41.822;23.564;2023-07-29T12:26:31;-11811.38;;;31.62;30.98
10145;BME280;5113;41.822;23.564;2023-07-29T12:29:40;-11825.06;;;32.11;29.89
10145;BME280;5113;41.822;23.564;2023-07-29T12:32:47;-11854.31;;;33.16;28.98
10145;BME280;5113;41.822;23.564;2023-07-29T12:35:54;-11847.97;;;32.93;28.90
10145;BME280;5113;41.822;23.564;2023-07-29T12:39:02;-11827.75;;;32.21;30.18
10145;BME280;5113;41.822;23.564;2023-07-29T12:42:09;-11837.94;;;32.57;28.68
10145;BME280;5113;41.822;23.564;2023-07-29T12:45:16;-11864.38;;;33.52;28.24
10145;BME280;5113;41.822;23.564;2023-07-29T12:48:23;-11856.16;;;33.23;28.94
10145;BME280;5113;41.822;23.564;2023-07-29T12:51:30;-11835.09;;;32.47;29.25
10145;BME280;5113;41.822;23.564;2023-07-29T12:54:40;-11845.56;;;32.85;28.14
10145;BME280;5113;41.822;23.564;2023-07-29T12:57:50;-11860.56;;;33.38;28.62
10145;BME280;5113;41.822;23.564;2023-07-29T13:00:56;-11822.09;;;32.00;28.82
10145;BME280;5113;41.822;23.564;2023-07-29T13:04:03;-11835.25;;;32.47;28.78
10145;BME280;5113;41.822;23.564;2023-07-29T13:07:09;-11845.56;;;32.85;27.64
10145;BME280;5113;41.822;23.564;2023-07-29T13:10:17;-11850.78;;;33.03;28.46
10145;BME280;5113;41.822;23.564;2023-07-29T13:13:24;-11835.66;;;32.49;28.59
10145;BME280;5113;41.822;23.564;2023-07-29T13:16:30;-11783.81;;;30.63;29.67
10145;BME280;5113;41.822;23.564;2023-07-29T13:19:37;-11791.16;;;30.89;29.63
10145;BME280;5113;41.822;23.564;2023-07-29T13:22:43;-11801.19;;;31.25;29.38
10145;BME280;5113;41.822;23.564;2023-07-29T13:25:51;-11797.94;;;31.13;30.05
10145;BME280;5113;41.822;23.564;2023-07-29T13:28:58;-11811.22;;;31.61;29.43
10145;BME280;5113;41.822;23.564;2023-07-29T13:32:06;-11824.94;;;32.10;28.14
10145;BME280;5113;41.822;23.564;2023-07-29T13:35:13;-11836.38;;;32.52;28.23
10145;BME280;5113;41.822;23.564;2023-07-29T13:38:19;-11863.09;;;33.47;28.21
10145;BME280;5113;41.822;23.564;2023-07-29T13:41:27;-11840.06;;;32.65;27.83
10145;BME280;5113;41.822;23.564;2023-07-29T13:44:33;-11851.34;;;33.05;27.40
10145;BME280;5113;41.822;23.564;2023-07-29T13:47:40;-11811.78;;;31.63;29.21
10145;BME280;5113;41.822;23.564;2023-07-29T13:50:46;-11797.53;;;31.12;29.72
10145;BME280;5113;41.822;23.564;2023-07-29T13:53:53;-11785.38;;;30.68;30.56
10145;BME280;5113;41.822;23.564;2023-07-29T13:57:02;-11815.03;;;31.75;29.73
10145;BME280;5113;41.822;23.564;2023-07-29T14:00:09;-11804.88;;;31.38;29.03
10145;BME280;5113;41.822;23.564;2023-07-29T14:03:15;-11801.06;;;31.25;29.43
10145;BME280;5113;41.822;23.564;2023-07-29T14:06:22;-11815.03;;;31.75;29.30
10145;BME280;5113;41.822;23.564;2023-07-29T14:09:48;-11825.50;;;32.12;28.44
10145;BME280;5113;41.822;23.564;2023-07-29T14:12:55;-11872.13;;;33.80;27.31
10145;BME280;5113;41.822;23.564;2023-07-29T14:16:02;-11807.41;;;31.47;28.31
10145;BME280;5113;41.822;23.564;2023-07-29T14:19:08;-11812.50;;;31.66;28.17
10145;BME280;5113;41.822;23.564;2023-07-29T14:22:15;-11785.66;;;30.69;28.53
10145;BME280;5113;41.822;23.564;2023-07-29T14:25:21;-11809.38;;;31.55;28.03
10145;BME280;5113;41.822;23.564;2023-07-29T14:28:29;-11781.69;;;30.55;28.72
10145;BME280;5113;41.822;23.564;2023-07-29T14:31:36;-11775.47;;;30.33;28.95
10145;BME280;5113;41.822;23.564;2023-07-29T14:34:42;-11776.88;;;30.38;28.60
10145;BME280;5113;41.822;23.564;2023-07-29T14:37:48;-11808.53;;;31.51;28.13
10145;BME280;5113;41.822;23.564;2023-07-29T14:40:55;-11777.16;;;30.39;28.49
10145;BME280;5113;41.822;23.564;2023-07-29T14:44:03;-11782.97;;;30.60;28.97
10145;BME280;5113;41.822;23.564;2023-07-29T14:47:10;-11794.97;;;31.03;28.20
10145;BME280;5113;41.822;23.564;2023-07-29T14:50:17;-11776.03;;;30.35;29.66
10145;BME280;5113;41.822;23.564;2023-07-29T14:53:23;-11767.56;;;30.04;29.70
10145;BME280;5113;41.822;23.564;2023-07-29T14:56:30;-11752.59;;;29.50;33.41
10145;BME280;5113;41.822;23.564;2023-07-29T14:59:38;-11752.03;;;29.48;34.67
10145;BME280;5113;41.822;23.564;2023-07-29T15:02:45;-11752.59;;;29.50;34.10
10145;BME280;5113;41.822;23.564;2023-07-29T15:05:51;-11748.50;;;29.36;34.62
10145;BME280;5113;41.822;23.564;2023-07-29T15:08:58;-11739.88;;;29.05;35.00
10145;BME280;5113;41.822;23.564;2023-07-29T15:12:05;-11733.37;;;28.81;35.81
10145;BME280;5113;41.822;23.564;2023-07-29T15:15:13;-11725.75;;;28.54;36.19
10145;BME280;5113;41.822;23.564;2023-07-29T15:18:19;-11735.34;;;28.88;36.28
10145;BME280;5113;41.822;23.564;2023-07-29T15:21:26;-11736.75;;;28.93;36.10
10145;BME280;5113;41.822;23.564;2023-07-29T15:24:32;-11731.13;;;28.73;36.21
10145;BME280;5113;41.822;23.564;2023-07-29T15:27:39;-11731.69;;;28.75;37.14
10145;BME280;5113;41.822;23.564;2023-07-29T15:30:47;-11724.34;;;28.49;37.29
10145;BME280;5113;41.822;23.564;2023-07-29T15:33:53;-11715.56;;;28.17;38.60
10145;BME280;5113;41.822;23.564;2023-07-29T15:36:59;-11723.19;;;28.45;37.61
10145;BME280;5113;41.822;23.564;2023-07-29T15:40:07;-11717.00;;;28.22;37.12
10145;BME280;5113;41.822;23.564;2023-07-29T15:43:14;-11713.31;;;28.09;37.45
10145;BME280;5113;41.822;23.564;2023-07-29T15:46:22;-11712.88;;;28.08;37.17
10145;BME280;5113;41.822;23.564;2023-07-29T15:49:28;-11716.72;;;28.21;37.93
10145;BME280;5113;41.822;23.564;2023-07-29T15:52:35;-11721.50;;;28.39;36.90
10145;BME280;5113;41.822;23.564;2023-07-29T15:55:41;-11717.28;;;28.23;37.83
10145;BME280;5113;41.822;23.564;2023-07-29T15:58:48;-11725.75;;;28.54;36.67
10145;BME280;5113;41.822;23.564;2023-07-29T16:01:55;-11717.13;;;28.23;37.81
10145;BME280;5113;41.822;23.564;2023-07-29T16:05:02;-11727.16;;;28.59;37.33
10145;BME280;5113;41.822;23.564;2023-07-29T16:08:09;-11716.13;;;28.19;38.17
10145;BME280;5113;41.822;23.564;2023-07-29T16:11:15;-11717.28;;;28.23;37.48
10145;BME280;5113;41.822;23.564;2023-07-29T16:14:22;-11683.94;;;27.04;43.73
10145;BME280;5113;41.822;23.564;2023-07-29T16:17:29;-11689.31;;;27.23;42.66